• Join FlightAware (Why Join?)
  • Login
  • US Flag 
06:56AM EDT


 

Airport Tracker/Info


-or-


 

Live Flight TrackerFlight Track Log ✈ TAM3049 ✈ 12-Jul-2013 ✈ SBSP / CGH - SBPA / POA

Flight Track Log - Related Links

Times and Time Zones

All times are in EDT time to prevent confusion due to time zone crossing. See the TAM3049 flight status page for this flight to view local times or setup timezone preferences in your user account.

Time Position Orientation Groundspeed Altitude Reporting Facility
EDT Latitude Longitude Course Direction KTS MPH feet Rate Location/Type
09:53PM -26.1417 -48.3673 211° Southwest  Level Estimated
09:54PM -26.2225 -48.4238 212° Southwest  Level Estimated
09:55PM -26.3033 -48.4803 212° Southwest  Level Estimated
09:56PM -26.3840 -48.5368 212° Southwest  Level Estimated
09:57PM -26.4648 -48.5935 212° Southwest  Level Estimated
09:58PM -26.5455 -48.6502 212° Southwest  Level Estimated
09:59PM -26.6262 -48.7070 212° Southwest  Level Estimated
10:00PM -26.7068 -48.7639 212° Southwest  Level Estimated
10:01PM -26.7875 -48.8209 212° Southwest  Level Estimated
10:02PM -26.8681 -48.8779 212° Southwest  Level Estimated
10:03PM -26.9487 -48.9351 212° Southwest  Level Estimated
10:04PM -27.0292 -48.9923 212° Southwest  Level Estimated
10:05PM -27.1098 -49.0496 212° Southwest  Level Estimated
10:06PM -27.1903 -49.1070 212° Southwest  Level Estimated
10:07PM -27.2708 -49.1644 212° Southwest  Level Estimated
10:08PM -27.3513 -49.2220 212° Southwest  Level Estimated
10:09PM -27.4317 -49.2796 212° Southwest  Level Estimated
10:10PM -27.5122 -49.3373 212° Southwest  Level Estimated
10:11PM -27.5926 -49.3951 212° Southwest  Level Estimated
10:12PM -27.6730 -49.4530 213° Southwest  Level Estimated
10:13PM -27.7533 -49.5110 213° Southwest  Level Estimated
10:14PM -27.8337 -49.5690 213° Southwest  Level Estimated
10:15PM -27.9140 -49.6272 213° Southwest  Level Estimated
10:16PM -27.9942 -49.6854 213° Southwest  Level Estimated
10:17PM -28.0745 -49.7437 213° Southwest  Level Estimated
10:18PM -28.1547 -49.8021 213° Southwest  Level Estimated
10:19PM -28.2349 -49.8606 213° Southwest  Level Estimated
10:20PM -28.3151 -49.9192 213° Southwest  Level Estimated
10:21PM -28.3953 -49.9779 213° Southwest  Level Estimated
10:22PM -28.4754 -50.0366 213° Southwest  Level Estimated
10:23PM -28.5555 -50.0955 213° Southwest  Level Estimated
10:24PM -28.6356 -50.1544 213° Southwest  Level Estimated
10:25PM -28.7157 -50.2134 213° Southwest  Level Estimated
10:26PM -28.7957 -50.2725 213° Southwest  Level Estimated
10:27PM -28.8757 -50.3317 213° Southwest  Level Estimated
10:28PM -28.9557 -50.3910 213° Southwest  Level Estimated
10:29PM -29.0357 -50.4504 213° Southwest  Level Estimated
10:30PM -29.1156 -50.5099 213° Southwest  Level Estimated
10:31PM -29.1955 -50.5695 213° Southwest  Level Estimated
10:32PM -29.2754 -50.6292 213° Southwest  Level Estimated
10:33PM -29.3552 -50.6889 213° Southwest  Level Estimated
10:34PM -29.4350 -50.7488 213° Southwest  Level Estimated
10:35PM -29.5149 -50.8087 213° Southwest  Level Estimated
10:36PM -29.5946 -50.8688 213° Southwest  Level Estimated
10:37PM -29.6744 -50.9289 213° Southwest  Level Estimated
10:38PM -29.7541 -50.9891 213° Southwest  Level Estimated
10:39PM -29.8338 -51.0494 213° Southwest  Level Estimated
10:40PM -29.9134 -51.1099 213° Southwest  Level Estimated
10:41PM -29.9931 -51.1704 213° Southwest  Level Estimated
10:42PM -29.9944 -51.1714 213° Southwest  Level Estimated
10:43PM -29.9944 -51.1714 41° Northeast  Level Estimated
10:44PM -29.9944 -51.1714 41° Northeast  Level Estimated
10:45PM -29.9944 -51.1714 41° Northeast  Level Estimated
10:46PM -29.9944 -51.1714 41° Northeast  Level Estimated
10:47PM -29.9944 -51.1714 41° Northeast  Level Estimated
10:48PM -29.9944 -51.1714 41° Northeast  Level Estimated
10:49PM -29.9944 -51.1714 41° Northeast  Level Estimated
10:50PM -29.9944 -51.1714 41° Northeast  Level Estimated
10:51PM -29.9944 -51.1714 41° Northeast  Level Estimated
10:52PM -29.9944 -51.1714 41° Northeast  Level Estimated
10:53PM -29.9944 -51.1714 41° Northeast  Level Estimated
10:54PM -29.9944 -51.1714 41° Northeast  Level Estimated
10:55PM -29.9944 -51.1714 41° Northeast  Level Estimated
10:56PM -29.9944 -51.1714 41° Northeast  Level Estimated
10:57PM -29.9944 -51.1714 41° Northeast  Level Estimated